sensor_id;sensor_type;location;lat;lon;timestamp;P1;durP1;ratioP1;P2;durP2;ratioP2
57985;SDS011;43788;42.670;23.330;2023-01-19T00:00:00;1.70;;;0.93;;
57985;SDS011;43788;42.670;23.330;2023-01-19T00:02:26;2.65;;;1.52;;
57985;SDS011;43788;42.670;23.330;2023-01-19T00:04:51;1.80;;;0.82;;
57985;SDS011;43788;42.670;23.330;2023-01-19T00:07:17;3.58;;;1.30;;
57985;SDS011;43788;42.670;23.330;2023-01-19T00:09:42;2.63;;;1.08;;
57985;SDS011;43788;42.670;23.330;2023-01-19T00:12:08;7.60;;;0.90;;
57985;SDS011;43788;42.670;23.330;2023-01-19T00:14:33;1.42;;;0.98;;
57985;SDS011;43788;42.670;23.330;2023-01-19T00:16:59;0.75;;;0.63;;
57985;SDS011;43788;42.670;23.330;2023-01-19T00:19:26;1.27;;;0.60;;
57985;SDS011;43788;42.670;23.330;2023-01-19T00:21:51;2.03;;;0.95;;
57985;SDS011;43788;42.670;23.330;2023-01-19T00:24:17;0.93;;;0.63;;
57985;SDS011;43788;42.670;23.330;2023-01-19T00:26:42;1.67;;;0.93;;
57985;SDS011;43788;42.670;23.330;2023-01-19T00:29:09;3.97;;;1.58;;
57985;SDS011;43788;42.670;23.330;2023-01-19T00:31:39;2.53;;;0.93;;
57985;SDS011;43788;42.670;23.330;2023-01-19T00:34:05;2.25;;;0.68;;
57985;SDS011;43788;42.670;23.330;2023-01-19T00:36:31;1.65;;;1.00;;
57985;SDS011;43788;42.670;23.330;2023-01-19T00:38:57;2.58;;;1.33;;
57985;SDS011;43788;42.670;23.330;2023-01-19T00:41:23;1.63;;;0.90;;
57985;SDS011;43788;42.670;23.330;2023-01-19T00:44:07;2.70;;;1.17;;
57985;SDS011;43788;42.670;23.330;2023-01-19T00:46:33;2.63;;;0.82;;
57985;SDS011;43788;42.670;23.330;2023-01-19T00:48:59;4.10;;;1.35;;
57985;SDS011;43788;42.670;23.330;2023-01-19T00:51:26;1.73;;;1.00;;
57985;SDS011;43788;42.670;23.330;2023-01-19T00:53:51;3.15;;;1.40;;
57985;SDS011;43788;42.670;23.330;2023-01-19T00:56:16;1.95;;;1.30;;
57985;SDS011;43788;42.670;23.330;2023-01-19T00:58:42;3.20;;;1.00;;
57985;SDS011;43788;42.670;23.330;2023-01-19T01:01:09;2.97;;;0.63;;
57985;SDS011;43788;42.670;23.330;2023-01-19T01:03:34;2.45;;;1.08;;
57985;SDS011;43788;42.670;23.330;2023-01-19T01:06:00;2.15;;;0.77;;
57985;SDS011;43788;42.670;23.330;2023-01-19T01:08:25;1.75;;;0.80;;
57985;SDS011;43788;42.670;23.330;2023-01-19T01:10:50;4.10;;;1.23;;
57985;SDS011;43788;42.670;23.330;2023-01-19T01:13:16;1.67;;;1.00;;
57985;SDS011;43788;42.670;23.330;2023-01-19T01:15:42;2.63;;;0.90;;
57985;SDS011;43788;42.670;23.330;2023-01-19T01:18:07;3.20;;;1.52;;
57985;SDS011;43788;42.670;23.330;2023-01-19T01:20:33;2.67;;;1.05;;
57985;SDS011;43788;42.670;23.330;2023-01-19T01:23:01;1.63;;;0.93;;
57985;SDS011;43788;42.670;23.330;2023-01-19T01:25:26;1.52;;;0.70;;
57985;SDS011;43788;42.670;23.330;2023-01-19T01:27:52;3.28;;;0.93;;
57985;SDS011;43788;42.670;23.330;2023-01-19T01:30:18;2.03;;;1.25;;
57985;SDS011;43788;42.670;23.330;2023-01-19T01:32:44;1.25;;;0.60;;
57985;SDS011;43788;42.670;23.330;2023-01-19T01:35:10;3.70;;;0.90;;
57985;SDS011;43788;42.670;23.330;2023-01-19T01:37:36;1.17;;;0.75;;
57985;SDS011;43788;42.670;23.330;2023-01-19T01:40:03;1.02;;;0.63;;
57985;SDS011;43788;42.670;23.330;2023-01-19T01:42:31;2.28;;;0.90;;
57985;SDS011;43788;42.670;23.330;2023-01-19T01:44:58;0.75;;;0.75;;
57985;SDS011;43788;42.670;23.330;2023-01-19T01:47:33;4.50;;;0.93;;
57985;SDS011;43788;42.670;23.330;2023-01-19T01:50:25;1.05;;;0.68;;
57985;SDS011;43788;42.670;23.330;2023-01-19T01:52:51;0.35;;;0.28;;
57985;SDS011;43788;42.670;23.330;2023-01-19T01:55:21;1.48;;;0.73;;
57985;SDS011;43788;42.670;23.330;2023-01-19T01:57:50;0.52;;;0.52;;
57985;SDS011;43788;42.670;23.330;2023-01-19T02:00:18;1.95;;;0.80;;
57985;SDS011;43788;42.670;23.330;2023-01-19T02:02:44;0.90;;;0.60;;
57985;SDS011;43788;42.670;23.330;2023-01-19T02:05:17;1.63;;;0.65;;
57985;SDS011;43788;42.670;23.330;2023-01-19T02:08:03;2.17;;;1.05;;
57985;SDS011;43788;42.670;23.330;2023-01-19T02:10:51;1.17;;;0.90;;
57985;SDS011;43788;42.670;23.330;2023-01-19T02:13:37;0.98;;;0.43;;
57985;SDS011;43788;42.670;23.330;2023-01-19T02:16:07;3.03;;;0.77;;
57985;SDS011;43788;42.670;23.330;2023-01-19T02:18:33;1.00;;;0.45;;
57985;SDS011;43788;42.670;23.330;2023-01-19T02:21:07;1.65;;;0.55;;
57985;SDS011;43788;42.670;23.330;2023-01-19T02:26:05;0.22;;;0.22;;
57985;SDS011;43788;42.670;23.330;2023-01-19T02:28:33;3.55;;;0.70;;
57985;SDS011;43788;42.670;23.330;2023-01-19T02:31:00;1.42;;;0.70;;
57985;SDS011;43788;42.670;23.330;2023-01-19T02:33:28;1.08;;;0.65;;
57985;SDS011;43788;42.670;23.330;2023-01-19T02:35:53;4.28;;;1.15;;
57985;SDS011;43788;42.670;23.330;2023-01-19T02:38:20;0.30;;;0.20;;
57985;SDS011;43788;42.670;23.330;2023-01-19T02:40:45;0.60;;;0.60;;
57985;SDS011;43788;42.670;23.330;2023-01-19T02:43:11;2.45;;;1.38;;
57985;SDS011;43788;42.670;23.330;2023-01-19T02:45:37;0.88;;;0.40;;
57985;SDS011;43788;42.670;23.330;2023-01-19T02:48:03;0.63;;;0.60;;
57985;SDS011;43788;42.670;23.330;2023-01-19T02:50:34;0.55;;;0.50;;
57985;SDS011;43788;42.670;23.330;2023-01-19T02:58:52;1.67;;;0.63;;
57985;SDS011;43788;42.670;23.330;2023-01-19T03:01:27;0.50;;;0.30;;
57985;SDS011;43788;42.670;23.330;2023-01-19T03:04:07;0.60;;;0.50;;
57985;SDS011;43788;42.670;23.330;2023-01-19T03:11:49;1.25;;;0.70;;
57985;SDS011;43788;42.670;23.330;2023-01-19T03:14:20;0.80;;;0.50;;
57985;SDS011;43788;42.670;23.330;2023-01-19T03:19:41;1.00;;;0.47;;
57985;SDS011;43788;42.670;23.330;2023-01-19T03:22:10;1.58;;;0.75;;
57985;SDS011;43788;42.670;23.330;2023-01-19T03:24:39;1.38;;;0.80;;
57985;SDS011;43788;42.670;23.330;2023-01-19T03:27:18;0.75;;;0.63;;
57985;SDS011;43788;42.670;23.330;2023-01-19T03:29:49;4.40;;;0.82;;
57985;SDS011;43788;42.670;23.330;2023-01-19T03:32:33;1.45;;;0.80;;
57985;SDS011;43788;42.670;23.330;2023-01-19T03:35:01;2.15;;;0.75;;
57985;SDS011;43788;42.670;23.330;2023-01-19T03:37:29;1.50;;;1.00;;
57985;SDS011;43788;42.670;23.330;2023-01-19T03:39:56;2.25;;;0.80;;
57985;SDS011;43788;42.670;23.330;2023-01-19T03:42:21;0.70;;;0.52;;
57985;SDS011;43788;42.670;23.330;2023-01-19T03:44:48;2.17;;;0.65;;
57985;SDS011;43788;42.670;23.330;2023-01-19T03:47:15;2.30;;;1.02;;
57985;SDS011;43788;42.670;23.330;2023-01-19T03:49:42;2.22;;;1.35;;
57985;SDS011;43788;42.670;23.330;2023-01-19T03:52:08;1.15;;;0.93;;
57985;SDS011;43788;42.670;23.330;2023-01-19T03:54:34;1.85;;;0.77;;
57985;SDS011;43788;42.670;23.330;2023-01-19T03:56:59;3.25;;;0.85;;
57985;SDS011;43788;42.670;23.330;2023-01-19T03:59:26;1.67;;;0.77;;
57985;SDS011;43788;42.670;23.330;2023-01-19T04:01:51;2.58;;;1.05;;
57985;SDS011;43788;42.670;23.330;2023-01-19T04:04:18;5.13;;;0.80;;
57985;SDS011;43788;42.670;23.330;2023-01-19T04:06:43;1.83;;;0.80;;
57985;SDS011;43788;42.670;23.330;2023-01-19T04:09:08;1.90;;;0.98;;
57985;SDS011;43788;42.670;23.330;2023-01-19T04:11:34;0.80;;;0.68;;
57985;SDS011;43788;42.670;23.330;2023-01-19T04:13:59;2.22;;;1.00;;
57985;SDS011;43788;42.670;23.330;2023-01-19T04:16:26;1.33;;;0.90;;
57985;SDS011;43788;42.670;23.330;2023-01-19T04:18:53;2.83;;;1.13;;
57985;SDS011;43788;42.670;23.330;2023-01-19T04:21:18;2.60;;;0.93;;
57985;SDS011;43788;42.670;23.330;2023-01-19T04:23:46;2.33;;;1.05;;
57985;SDS011;43788;42.670;23.330;2023-01-19T04:26:15;4.15;;;1.02;;
57985;SDS011;43788;42.670;23.330;2023-01-19T04:28:41;2.33;;;1.35;;
57985;SDS011;43788;42.670;23.330;2023-01-19T04:31:06;2.25;;;1.08;;
57985;SDS011;43788;42.670;23.330;2023-01-19T04:33:32;7.35;;;1.27;;
57985;SDS011;43788;42.670;23.330;2023-01-19T04:35:57;3.58;;;1.42;;
57985;SDS011;43788;42.670;23.330;2023-01-19T04:38:23;2.97;;;0.95;;
57985;SDS011;43788;42.670;23.330;2023-01-19T04:40:49;2.90;;;1.23;;
57985;SDS011;43788;42.670;23.330;2023-01-19T04:43:16;2.17;;;1.08;;
57985;SDS011;43788;42.670;23.330;2023-01-19T04:45:42;2.47;;;1.27;;
57985;SDS011;43788;42.670;23.330;2023-01-19T04:48:09;3.53;;;1.52;;
57985;SDS011;43788;42.670;23.330;2023-01-19T04:50:35;2.45;;;1.33;;
57985;SDS011;43788;42.670;23.330;2023-01-19T04:53:01;3.20;;;1.20;;
57985;SDS011;43788;42.670;23.330;2023-01-19T04:55:26;1.55;;;1.27;;
57985;SDS011;43788;42.670;23.330;2023-01-19T04:57:52;3.22;;;1.40;;
57985;SDS011;43788;42.670;23.330;2023-01-19T05:00:18;2.50;;;1.45;;
57985;SDS011;43788;42.670;23.330;2023-01-19T05:02:44;2.65;;;1.50;;
57985;SDS011;43788;42.670;23.330;2023-01-19T05:05:10;1.30;;;0.90;;
57985;SDS011;43788;42.670;23.330;2023-01-19T05:07:36;3.03;;;1.23;;
57985;SDS011;43788;42.670;23.330;2023-01-19T05:10:02;3.80;;;0.90;;
57985;SDS011;43788;42.670;23.330;2023-01-19T05:12:28;2.97;;;1.50;;
57985;SDS011;43788;42.670;23.330;2023-01-19T05:14:53;3.53;;;1.42;;
57985;SDS011;43788;42.670;23.330;2023-01-19T05:17:19;4.60;;;1.20;;
57985;SDS011;43788;42.670;23.330;2023-01-19T05:19:44;2.10;;;1.13;;
57985;SDS011;43788;42.670;23.330;2023-01-19T05:25:14;1.75;;;1.15;;
57985;SDS011;43788;42.670;23.330;2023-01-19T05:30:42;2.42;;;1.25;;
57985;SDS011;43788;42.670;23.330;2023-01-19T05:35:59;3.33;;;1.70;;
57985;SDS011;43788;42.670;23.330;2023-01-19T05:38:25;3.70;;;1.35;;
57985;SDS011;43788;42.670;23.330;2023-01-19T05:40:55;4.63;;;1.30;;
57985;SDS011;43788;42.670;23.330;2023-01-19T05:43:23;0.67;;;0.57;;
57985;SDS011;43788;42.670;23.330;2023-01-19T05:45:49;2.80;;;0.98;;
57985;SDS011;43788;42.670;23.330;2023-01-19T05:48:15;1.75;;;1.17;;
57985;SDS011;43788;42.670;23.330;2023-01-19T05:50:41;2.47;;;0.98;;
57985;SDS011;43788;42.670;23.330;2023-01-19T05:53:08;3.13;;;1.67;;
57985;SDS011;43788;42.670;23.330;2023-01-19T05:55:33;2.67;;;1.35;;
57985;SDS011;43788;42.670;23.330;2023-01-19T05:57:59;2.30;;;1.15;;
57985;SDS011;43788;42.670;23.330;2023-01-19T06:03:19;1.80;;;1.23;;
57985;SDS011;43788;42.670;23.330;2023-01-19T06:05:45;4.18;;;1.25;;
57985;SDS011;43788;42.670;23.330;2023-01-19T06:08:10;1.77;;;1.10;;
57985;SDS011;43788;42.670;23.330;2023-01-19T06:10:37;1.58;;;1.08;;
57985;SDS011;43788;42.670;23.330;2023-01-19T06:13:02;3.28;;;1.48;;
57985;SDS011;43788;42.670;23.330;2023-01-19T06:15:28;2.22;;;1.38;;
57985;SDS011;43788;42.670;23.330;2023-01-19T06:17:54;2.70;;;1.35;;
57985;SDS011;43788;42.670;23.330;2023-01-19T06:23:10;1.48;;;0.95;;
57985;SDS011;43788;42.670;23.330;2023-01-19T06:25:37;1.60;;;1.00;;
57985;SDS011;43788;42.670;23.330;2023-01-19T06:28:03;3.10;;;1.55;;
57985;SDS011;43788;42.670;23.330;2023-01-19T06:30:30;1.67;;;1.17;;
57985;SDS011;43788;42.670;23.330;2023-01-19T06:32:55;2.33;;;1.15;;
57985;SDS011;43788;42.670;23.330;2023-01-19T06:35:21;5.10;;;1.42;;
57985;SDS011;43788;42.670;23.330;2023-01-19T06:37:47;2.97;;;1.20;;
57985;SDS011;43788;42.670;23.330;2023-01-19T06:40:12;3.03;;;1.20;;
57985;SDS011;43788;42.670;23.330;2023-01-19T06:42:38;1.75;;;1.00;;
57985;SDS011;43788;42.670;23.330;2023-01-19T06:45:04;2.03;;;1.38;;
57985;SDS011;43788;42.670;23.330;2023-01-19T06:47:34;4.93;;;1.75;;
57985;SDS011;43788;42.670;23.330;2023-01-19T06:50:00;1.73;;;1.15;;
57985;SDS011;43788;42.670;23.330;2023-01-19T06:52:26;2.92;;;1.23;;
57985;SDS011;43788;42.670;23.330;2023-01-19T06:54:52;1.92;;;0.77;;
57985;SDS011;43788;42.670;23.330;2023-01-19T06:59:52;4.78;;;1.10;;
57985;SDS011;43788;42.670;23.330;2023-01-19T07:02:20;1.23;;;1.00;;
57985;SDS011;43788;42.670;23.330;2023-01-19T07:04:47;2.42;;;0.90;;
57985;SDS011;43788;42.670;23.330;2023-01-19T07:07:13;4.03;;;1.63;;
57985;SDS011;43788;42.670;23.330;2023-01-19T07:09:40;3.55;;;1.60;;
57985;SDS011;43788;42.670;23.330;2023-01-19T07:12:05;3.75;;;1.42;;
57985;SDS011;43788;42.670;23.330;2023-01-19T07:14:31;2.42;;;1.40;;
57985;SDS011;43788;42.670;23.330;2023-01-19T07:16:57;5.97;;;1.45;;
57985;SDS011;43788;42.670;23.330;2023-01-19T07:19:23;3.25;;;1.13;;
57985;SDS011;43788;42.670;23.330;2023-01-19T07:21:49;2.28;;;1.25;;
57985;SDS011;43788;42.670;23.330;2023-01-19T07:24:14;2.28;;;1.45;;
57985;SDS011;43788;42.670;23.330;2023-01-19T07:26:39;3.80;;;1.13;;
57985;SDS011;43788;42.670;23.330;2023-01-19T07:29:05;4.13;;;1.27;;
57985;SDS011;43788;42.670;23.330;2023-01-19T07:31:30;3.70;;;1.40;;
57985;SDS011;43788;42.670;23.330;2023-01-19T07:33:57;2.42;;;1.13;;
57985;SDS011;43788;42.670;23.330;2023-01-19T07:36:22;7.05;;;1.40;;
57985;SDS011;43788;42.670;23.330;2023-01-19T07:38:48;2.22;;;1.20;;
57985;SDS011;43788;42.670;23.330;2023-01-19T07:41:13;2.10;;;1.52;;
57985;SDS011;43788;42.670;23.330;2023-01-19T07:43:38;1.88;;;1.35;;
57985;SDS011;43788;42.670;23.330;2023-01-19T07:46:05;2.30;;;1.35;;
57985;SDS011;43788;42.670;23.330;2023-01-19T07:48:32;3.70;;;1.50;;
57985;SDS011;43788;42.670;23.330;2023-01-19T07:50:59;3.15;;;1.02;;
57985;SDS011;43788;42.670;23.330;2023-01-19T07:53:25;2.72;;;1.30;;
57985;SDS011;43788;42.670;23.330;2023-01-19T07:55:54;1.65;;;0.95;;
57985;SDS011;43788;42.670;23.330;2023-01-19T07:58:20;4.70;;;1.50;;
57985;SDS011;43788;42.670;23.330;2023-01-19T08:00:46;3.55;;;1.25;;
57985;SDS011;43788;42.670;23.330;2023-01-19T08:03:13;4.38;;;1.10;;
57985;SDS011;43788;42.670;23.330;2023-01-19T08:05:38;2.25;;;1.02;;
57985;SDS011;43788;42.670;23.330;2023-01-19T08:08:04;2.45;;;1.27;;
57985;SDS011;43788;42.670;23.330;2023-01-19T08:10:30;3.95;;;1.50;;
57985;SDS011;43788;42.670;23.330;2023-01-19T08:12:56;3.70;;;1.48;;
57985;SDS011;43788;42.670;23.330;2023-01-19T08:18:14;4.70;;;1.40;;
57985;SDS011;43788;42.670;23.330;2023-01-19T08:20:41;3.22;;;1.42;;
57985;SDS011;43788;42.670;23.330;2023-01-19T08:23:06;3.05;;;1.60;;
57985;SDS011;43788;42.670;23.330;2023-01-19T08:25:36;2.38;;;1.35;;
57985;SDS011;43788;42.670;23.330;2023-01-19T08:28:14;3.67;;;1.05;;
57985;SDS011;43788;42.670;23.330;2023-01-19T08:30:40;3.47;;;1.08;;
57985;SDS011;43788;42.670;23.330;2023-01-19T08:33:08;2.92;;;1.15;;
57985;SDS011;43788;42.670;23.330;2023-01-19T08:35:35;1.95;;;1.30;;
57985;SDS011;43788;42.670;23.330;2023-01-19T08:38:04;1.60;;;0.70;;
57985;SDS011;43788;42.670;23.330;2023-01-19T08:40:34;3.13;;;1.50;;
57985;SDS011;43788;42.670;23.330;2023-01-19T08:43:04;3.60;;;1.00;;
57985;SDS011;43788;42.670;23.330;2023-01-19T08:45:35;2.78;;;1.10;;
57985;SDS011;43788;42.670;23.330;2023-01-19T08:48:01;4.00;;;1.10;;
57985;SDS011;43788;42.670;23.330;2023-01-19T08:50:28;1.58;;;0.70;;
57985;SDS011;43788;42.670;23.330;2023-01-19T08:52:58;7.10;;;1.35;;
57985;SDS011;43788;42.670;23.330;2023-01-19T08:55:25;2.13;;;1.08;;
57985;SDS011;43788;42.670;23.330;2023-01-19T08:57:54;3.05;;;1.20;;
57985;SDS011;43788;42.670;23.330;2023-01-19T09:00:23;4.57;;;1.30;;
57985;SDS011;43788;42.670;23.330;2023-01-19T09:02:51;4.53;;;1.58;;
57985;SDS011;43788;42.670;23.330;2023-01-19T09:05:17;4.88;;;1.30;;
57985;SDS011;43788;42.670;23.330;2023-01-19T09:07:43;1.83;;;1.25;;
57985;SDS011;43788;42.670;23.330;2023-01-19T09:10:10;2.65;;;1.52;;
57985;SDS011;43788;42.670;23.330;2023-01-19T09:12:36;2.78;;;1.30;;
57985;SDS011;43788;42.670;23.330;2023-01-19T09:15:01;1.30;;;0.90;;
57985;SDS011;43788;42.670;23.330;2023-01-19T09:17:27;2.45;;;1.10;;
57985;SDS011;43788;42.670;23.330;2023-01-19T09:19:52;1.17;;;0.98;;
57985;SDS011;43788;42.670;23.330;2023-01-19T09:22:21;3.45;;;1.20;;
57985;SDS011;43788;42.670;23.330;2023-01-19T09:24:46;4.03;;;1.48;;
57985;SDS011;43788;42.670;23.330;2023-01-19T09:29:44;2.28;;;0.98;;
57985;SDS011;43788;42.670;23.330;2023-01-19T09:32:17;1.15;;;0.50;;
57985;SDS011;43788;42.670;23.330;2023-01-19T09:34:44;1.30;;;0.60;;
57985;SDS011;43788;42.670;23.330;2023-01-19T09:37:09;3.08;;;1.25;;
57985;SDS011;43788;42.670;23.330;2023-01-19T09:39:36;2.45;;;1.13;;
57985;SDS011;43788;42.670;23.330;2023-01-19T09:44:55;1.25;;;0.90;;
57985;SDS011;43788;42.670;23.330;2023-01-19T09:47:25;2.20;;;0.90;;
57985;SDS011;43788;42.670;23.330;2023-01-19T09:49:55;2.65;;;1.13;;
57985;SDS011;43788;42.670;23.330;2023-01-19T09:52:23;5.47;;;0.97;;
57985;SDS011;43788;42.670;23.330;2023-01-19T09:54:51;1.13;;;0.98;;
57985;SDS011;43788;42.670;23.330;2023-01-19T09:57:20;1.27;;;0.80;;
57985;SDS011;43788;42.670;23.330;2023-01-19T09:59:47;1.20;;;0.88;;
57985;SDS011;43788;42.670;23.330;2023-01-19T10:10:33;1.15;;;0.60;;
57985;SDS011;43788;42.670;23.330;2023-01-19T10:13:02;0.57;;;0.47;;
57985;SDS011;43788;42.670;23.330;2023-01-19T10:18:20;0.82;;;0.65;;
57985;SDS011;43788;42.670;23.330;2023-01-19T10:21:02;2.40;;;0.88;;
57985;SDS011;43788;42.670;23.330;2023-01-19T10:28:44;0.98;;;0.80;;
57985;SDS011;43788;42.670;23.330;2023-01-19T10:34:01;1.23;;;0.70;;
57985;SDS011;43788;42.670;23.330;2023-01-19T10:36:33;3.45;;;1.02;;
57985;SDS011;43788;42.670;23.330;2023-01-19T10:39:02;1.35;;;0.90;;
57985;SDS011;43788;42.670;23.330;2023-01-19T10:44:06;1.30;;;0.65;;
57985;SDS011;43788;42.670;23.330;2023-01-19T10:46:41;1.10;;;0.73;;
57985;SDS011;43788;42.670;23.330;2023-01-19T10:52:06;0.30;;;0.30;;
57985;SDS011;43788;42.670;23.330;2023-01-19T10:54:47;1.33;;;0.75;;
57985;SDS011;43788;42.670;23.330;2023-01-19T10:57:31;1.17;;;0.55;;
57985;SDS011;43788;42.670;23.330;2023-01-19T11:00:00;0.80;;;0.60;;
57985;SDS011;43788;42.670;23.330;2023-01-19T11:02:29;1.38;;;0.63;;
57985;SDS011;43788;42.670;23.330;2023-01-19T11:04:56;0.88;;;0.75;;
57985;SDS011;43788;42.670;23.330;2023-01-19T11:07:32;0.98;;;0.60;;
57985;SDS011;43788;42.670;23.330;2023-01-19T11:10:12;1.95;;;0.77;;
57985;SDS011;43788;42.670;23.330;2023-01-19T11:12:46;2.13;;;0.70;;
57985;SDS011;43788;42.670;23.330;2023-01-19T11:15:15;4.05;;;1.13;;
57985;SDS011;43788;42.670;23.330;2023-01-19T11:17:45;1.30;;;0.60;;
57985;SDS011;43788;42.670;23.330;2023-01-19T11:20:19;0.90;;;0.85;;
57985;SDS011;43788;42.670;23.330;2023-01-19T11:22:46;0.95;;;0.52;;
57985;SDS011;43788;42.670;23.330;2023-01-19T11:25:23;2.08;;;0.65;;
57985;SDS011;43788;42.670;23.330;2023-01-19T11:27:52;0.82;;;0.70;;
57985;SDS011;43788;42.670;23.330;2023-01-19T11:30:18;0.95;;;0.63;;
57985;SDS011;43788;42.670;23.330;2023-01-19T11:32:45;0.90;;;0.60;;
57985;SDS011;43788;42.670;23.330;2023-01-19T11:40:40;1.88;;;0.80;;
57985;SDS011;43788;42.670;23.330;2023-01-19T11:43:09;0.80;;;0.73;;
57985;SDS011;43788;42.670;23.330;2023-01-19T11:45:36;2.08;;;0.50;;
57985;SDS011;43788;42.670;23.330;2023-01-19T11:48:03;1.00;;;0.63;;
57985;SDS011;43788;42.670;23.330;2023-01-19T11:50:30;0.85;;;0.43;;
57985;SDS011;43788;42.670;23.330;2023-01-19T11:53:03;2.75;;;0.93;;
57985;SDS011;43788;42.670;23.330;2023-01-19T11:55:40;0.93;;;0.52;;
57985;SDS011;43788;42.670;23.330;2023-01-19T11:58:32;1.17;;;0.63;;
57985;SDS011;43788;42.670;23.330;2023-01-19T12:04:12;0.50;;;0.35;;
57985;SDS011;43788;42.670;23.330;2023-01-19T12:07:24;1.17;;;0.77;;
57985;SDS011;43788;42.670;23.330;2023-01-19T12:10:19;2.13;;;0.75;;
57985;SDS011;43788;42.670;23.330;2023-01-19T12:12:49;0.85;;;0.75;;
57985;SDS011;43788;42.670;23.330;2023-01-19T12:17:53;0.47;;;0.40;;
57985;SDS011;43788;42.670;23.330;2023-01-19T12:20:38;0.90;;;0.63;;
57985;SDS011;43788;42.670;23.330;2023-01-19T12:28:27;0.77;;;0.55;;
57985;SDS011;43788;42.670;23.330;2023-01-19T12:31:00;1.42;;;0.50;;
57985;SDS011;43788;42.670;23.330;2023-01-19T12:33:59;0.60;;;0.60;;
57985;SDS011;43788;42.670;23.330;2023-01-19T12:41:45;0.43;;;0.25;;
57985;SDS011;43788;42.670;23.330;2023-01-19T12:44:19;0.77;;;0.50;;
57985;SDS011;43788;42.670;23.330;2023-01-19T12:59:58;0.80;;;0.75;;
57985;SDS011;43788;42.670;23.330;2023-01-19T13:15:53;0.60;;;0.32;;
57985;SDS011;43788;42.670;23.330;2023-01-19T13:18:21;1.63;;;0.70;;
57985;SDS011;43788;42.670;23.330;2023-01-19T13:21:03;2.30;;;0.30;;
57985;SDS011;43788;42.670;23.330;2023-01-19T13:29:28;0.52;;;0.40;;
57985;SDS011;43788;42.670;23.330;2023-01-19T13:31:56;0.60;;;0.50;;
57985;SDS011;43788;42.670;23.330;2023-01-19T13:34:50;1.42;;;0.50;;
57985;SDS011;43788;42.670;23.330;2023-01-19T13:37:23;0.65;;;0.30;;
57985;SDS011;43788;42.670;23.330;2023-01-19T13:39:53;0.82;;;0.55;;
57985;SDS011;43788;42.670;23.330;2023-01-19T13:42:29;2.17;;;0.40;;
57985;SDS011;43788;42.670;23.330;2023-01-19T13:45:01;1.13;;;0.60;;
57985;SDS011;43788;42.670;23.330;2023-01-19T13:47:35;3.00;;;0.70;;
57985;SDS011;43788;42.670;23.330;2023-01-19T13:50:06;0.82;;;0.43;;
57985;SDS011;43788;42.670;23.330;2023-01-19T13:52:45;1.30;;;0.47;;
57985;SDS011;43788;42.670;23.330;2023-01-19T13:55:14;0.40;;;0.30;;
57985;SDS011;43788;42.670;23.330;2023-01-19T13:57:43;0.85;;;0.28;;
57985;SDS011;43788;42.670;23.330;2023-01-19T14:07:58;2.15;;;0.43;;
57985;SDS011;43788;42.670;23.330;2023-01-19T14:13:17;1.35;;;0.40;;
57985;SDS011;43788;42.670;23.330;2023-01-19T14:15:47;0.75;;;0.40;;
57985;SDS011;43788;42.670;23.330;2023-01-19T14:34:50;0.28;;;0.20;;
57985;SDS011;43788;42.670;23.330;2023-01-19T14:37:19;0.90;;;0.43;;
57985;SDS011;43788;42.670;23.330;2023-01-19T14:42:42;0.30;;;0.20;;
57985;SDS011;43788;42.670;23.330;2023-01-19T14:45:16;0.73;;;0.30;;
57985;SDS011;43788;42.670;23.330;2023-01-19T14:47:44;0.63;;;0.52;;
57985;SDS011;43788;42.670;23.330;2023-01-19T14:50:24;0.30;;;0.25;;
57985;SDS011;43788;42.670;23.330;2023-01-19T14:53:26;0.50;;;0.30;;
57985;SDS011;43788;42.670;23.330;2023-01-19T14:55:57;0.20;;;0.20;;
57985;SDS011;43788;42.670;23.330;2023-01-19T14:58:25;0.35;;;0.20;;
57985;SDS011;43788;42.670;23.330;2023-01-19T15:00:52;0.47;;;0.43;;
57985;SDS011;43788;42.670;23.330;2023-01-19T15:03:20;0.13;;;0.13;;
57985;SDS011;43788;42.670;23.330;2023-01-19T15:08:41;0.28;;;0.28;;
57985;SDS011;43788;42.670;23.330;2023-01-19T15:13:46;0.80;;;0.25;;
57985;SDS011;43788;42.670;23.330;2023-01-19T15:16:15;0.75;;;0.50;;
57985;SDS011;43788;42.670;23.330;2023-01-19T15:18:41;0.95;;;0.57;;
57985;SDS011;43788;42.670;23.330;2023-01-19T15:21:16;0.17;;;0.17;;
57985;SDS011;43788;42.670;23.330;2023-01-19T15:23:47;0.35;;;0.17;;
57985;SDS011;43788;42.670;23.330;2023-01-19T15:26:17;0.52;;;0.20;;
57985;SDS011;43788;42.670;23.330;2023-01-19T15:28:45;0.52;;;0.22;;
57985;SDS011;43788;42.670;23.330;2023-01-19T15:31:15;0.32;;;0.28;;
57985;SDS011;43788;42.670;23.330;2023-01-19T15:33:42;0.60;;;0.30;;
57985;SDS011;43788;42.670;23.330;2023-01-19T15:36:18;0.20;;;0.20;;
57985;SDS011;43788;42.670;23.330;2023-01-19T15:38:45;0.38;;;0.20;;
57985;SDS011;43788;42.670;23.330;2023-01-19T15:41:13;0.30;;;0.30;;
57985;SDS011;43788;42.670;23.330;2023-01-19T15:43:43;0.20;;;0.20;;
57985;SDS011;43788;42.670;23.330;2023-01-19T15:48:59;0.68;;;0.30;;
57985;SDS011;43788;42.670;23.330;2023-01-19T15:51:25;0.20;;;0.20;;
57985;SDS011;43788;42.670;23.330;2023-01-19T15:53:52;0.30;;;0.30;;
57985;SDS011;43788;42.670;23.330;2023-01-19T15:56:19;0.20;;;0.17;;
57985;SDS011;43788;42.670;23.330;2023-01-19T15:58:55;0.20;;;0.20;;
57985;SDS011;43788;42.670;23.330;2023-01-19T16:01:24;0.20;;;0.20;;
57985;SDS011;43788;42.670;23.330;2023-01-19T16:03:56;1.25;;;0.40;;
57985;SDS011;43788;42.670;23.330;2023-01-19T16:06:23;0.45;;;0.25;;
57985;SDS011;43788;42.670;23.330;2023-01-19T16:08:49;0.40;;;0.20;;
57985;SDS011;43788;42.670;23.330;2023-01-19T16:11:15;0.30;;;0.30;;
57985;SDS011;43788;42.670;23.330;2023-01-19T16:13:45;0.28;;;0.28;;
57985;SDS011;43788;42.670;23.330;2023-01-19T16:16:13;0.30;;;0.25;;
57985;SDS011;43788;42.670;23.330;2023-01-19T16:18:40;0.38;;;0.20;;
57985;SDS011;43788;42.670;23.330;2023-01-19T16:21:05;0.88;;;0.15;;
57985;SDS011;43788;42.670;23.330;2023-01-19T16:23:32;0.00;;;0.00;;
57985;SDS011;43788;42.670;23.330;2023-01-19T16:25:59;0.45;;;0.28;;
57985;SDS011;43788;42.670;23.330;2023-01-19T16:31:24;0.20;;;0.10;;
57985;SDS011;43788;42.670;23.330;2023-01-19T16:33:51;0.08;;;0.08;;
57985;SDS011;43788;42.670;23.330;2023-01-19T16:36:21;0.00;;;0.00;;
57985;SDS011;43788;42.670;23.330;2023-01-19T16:38:48;0.10;;;0.10;;
57985;SDS011;43788;42.670;23.330;2023-01-19T16:41:14;0.13;;;0.13;;
57985;SDS011;43788;42.670;23.330;2023-01-19T16:43:41;0.28;;;0.10;;
57985;SDS011;43788;42.670;23.330;2023-01-19T16:46:08;0.45;;;0.38;;
57985;SDS011;43788;42.670;23.330;2023-01-19T16:48:44;0.00;;;0.00;;
57985;SDS011;43788;42.670;23.330;2023-01-19T16:51:10;0.13;;;0.13;;
57985;SDS011;43788;42.670;23.330;2023-01-19T16:53:35;0.30;;;0.30;;
57985;SDS011;43788;42.670;23.330;2023-01-19T16:56:11;0.10;;;0.10;;
57985;SDS011;43788;42.670;23.330;2023-01-19T16:58:37;0.17;;;0.17;;
57985;SDS011;43788;42.670;23.330;2023-01-19T17:01:06;0.10;;;0.10;;
57985;SDS011;43788;42.670;23.330;2023-01-19T17:03:37;0.22;;;0.15;;
57985;SDS011;43788;42.670;23.330;2023-01-19T17:06:05;0.30;;;0.20;;
57985;SDS011;43788;42.670;23.330;2023-01-19T17:08:31;0.13;;;0.13;;
57985;SDS011;43788;42.670;23.330;2023-01-19T17:10:57;0.25;;;0.25;;
57985;SDS011;43788;42.670;23.330;2023-01-19T17:13:29;0.98;;;0.20;;
57985;SDS011;43788;42.670;23.330;2023-01-19T17:15:58;0.20;;;0.20;;
57985;SDS011;43788;42.670;23.330;2023-01-19T17:18:24;0.05;;;0.05;;
57985;SDS011;43788;42.670;23.330;2023-01-19T17:20:50;0.10;;;0.10;;
57985;SDS011;43788;42.670;23.330;2023-01-19T17:23:15;0.10;;;0.10;;